Time;durP1;ratioP1;P1;durP2;ratioP2;P2;SDS_P1;SDS_P2;PMS_P1;PMS_P2;Temp;Humidity;BMP_temperature;BMP_pressure;BME280_temperature;BME280_humidity;BME280_pressure;Samples;Min_cycle;Max_cycle;Signal;HPM_P1;HPM_P2
2023/02/04 00:02:11;;;;;;;21.20;2.40;;;7.30;99.90;;;;;;4898869;29;20059;-75
2023/02/04 00:04:38;;;;;;;17.20;2.55;;;7.30;99.90;;;;;;4907207;29;20028;-73
2023/02/04 00:07:04;;;;;;;17.85;2.65;;;7.30;99.90;;;;;;4894989;29;20389;-74
2023/02/04 00:09:30;;;;;;;19.70;2.58;;;7.20;99.90;;;;;;4914467;29;20399;-73
2023/02/04 00:11:56;;;;;;;14.52;2.60;;;7.20;99.90;;;;;;4899651;29;20480;-74
2023/02/04 00:14:22;;;;;;;24.08;3.47;;;7.20;99.90;;;;;;4911644;29;20408;-73
2023/02/04 00:16:49;;;;;;;27.17;3.67;;;7.20;99.90;;;;;;4895375;29;20542;-74
2023/02/04 00:19:15;;;;;;;17.00;2.13;;;7.30;99.90;;;;;;4888588;29;20043;-73
2023/02/04 00:21:42;;;;;;;16.85;2.30;;;7.30;99.90;;;;;;4914195;29;20047;-75
2023/02/04 00:24:08;;;;;;;15.77;2.17;;;7.30;99.90;;;;;;4878034;29;20044;-73
2023/02/04 00:26:35;;;;;;;20.27;2.75;;;7.30;99.90;;;;;;4903071;29;20078;-73
2023/02/04 00:29:01;;;;;;;19.00;3.40;;;7.30;99.90;;;;;;4913348;29;20043;-73
2023/02/04 00:31:27;;;;;;;14.60;1.88;;;7.30;99.90;;;;;;4907908;29;20389;-73
2023/02/04 00:33:54;;;;;;;12.32;1.52;;;7.20;99.90;;;;;;4886006;29;20500;-73
2023/02/04 00:36:20;;;;;;;21.50;3.10;;;7.20;99.90;;;;;;4911764;29;20060;-73
2023/02/04 00:38:46;;;;;;;10.90;1.63;;;7.10;99.90;;;;;;4911015;29;20031;-73
2023/02/04 00:41:13;;;;;;;18.38;1.95;;;7.00;99.90;;;;;;4911726;29;20036;-73
2023/02/04 00:43:39;;;;;;;17.10;2.55;;;7.00;99.90;;;;;;4900252;29;20047;-74
2023/02/04 00:46:05;;;;;;;11.73;2.22;;;7.00;99.90;;;;;;4899572;29;20056;-73
2023/02/04 00:48:33;;;;;;;14.52;2.85;;;6.90;99.90;;;;;;4891266;29;20266;-73
2023/02/04 00:50:59;;;;;;;12.25;1.55;;;6.90;99.90;;;;;;4891244;29;20047;-73
2023/02/04 00:53:25;;;;;;;19.50;2.20;;;6.90;99.90;;;;;;4882924;29;20051;-72
2023/02/04 00:55:51;;;;;;;13.55;1.67;;;6.90;99.90;;;;;;4902347;29;20043;-74
2023/02/04 00:58:18;;;;;;;14.00;1.98;;;6.90;99.90;;;;;;4897788;29;20044;-74
2023/02/04 01:00:44;;;;;;;12.68;1.48;;;6.90;99.90;;;;;;4903053;29;20036;-74
2023/02/04 01:03:11;;;;;;;16.45;2.08;;;7.00;99.90;;;;;;4905134;29;20036;-73
2023/02/04 01:05:37;;;;;;;16.27;1.70;;;7.00;99.90;;;;;;4877431;29;20036;-73
2023/02/04 01:08:04;;;;;;;8.45;1.30;;;6.90;99.90;;;;;;4896992;29;20044;-73
2023/02/04 01:10:30;;;;;;;14.90;2.60;;;6.90;99.90;;;;;;4888780;29;20046;-73
2023/02/04 01:12:56;;;;;;;13.63;1.38;;;6.90;99.90;;;;;;4895172;29;20040;-73
2023/02/04 01:15:23;;;;;;;12.88;1.70;;;6.80;99.90;;;;;;4888941;29;20036;-73
2023/02/04 01:17:49;;;;;;;18.88;2.45;;;6.80;99.90;;;;;;4916164;29;20052;-73
2023/02/04 01:20:16;;;;;;;11.98;1.90;;;6.70;99.90;;;;;;4887114;29;20042;-73
2023/02/04 01:22:42;;;;;;;16.35;1.88;;;6.70;99.90;;;;;;4884042;29;20052;-74
2023/02/04 01:25:08;;;;;;;11.07;1.42;;;6.60;99.90;;;;;;4853798;29;20530;-72
2023/02/04 01:27:39;;;;;;;12.40;2.03;;;6.60;99.90;;;;;;4912703;29;20047;-73
2023/02/04 01:30:06;;;;;;;12.68;2.03;;;6.50;99.90;;;;;;4910100;29;20396;-74
2023/02/04 01:32:33;;;;;;;15.20;1.98;;;6.40;99.90;;;;;;4891824;29;20056;-74
2023/02/04 01:34:59;;;;;;;16.25;2.70;;;6.40;99.90;;;;;;4876066;29;20058;-73
2023/02/04 01:37:26;;;;;;;16.35;2.53;;;6.30;99.90;;;;;;4913827;29;20052;-74
2023/02/04 01:39:52;;;;;;;11.75;1.73;;;6.40;99.90;;;;;;4900185;29;20047;-73
2023/02/04 01:42:19;;;;;;;11.50;1.38;;;6.40;99.90;;;;;;4895813;29;20040;-73
2023/02/04 01:44:47;;;;;;;16.98;1.80;;;6.40;99.90;;;;;;4905424;29;20050;-75
2023/02/04 01:47:13;;;;;;;16.35;1.63;;;6.40;99.90;;;;;;4911689;29;20048;-73
2023/02/04 01:49:40;;;;;;;10.00;1.73;;;6.40;99.90;;;;;;4907360;29;20047;-74
2023/02/04 01:52:08;;;;;;;19.75;2.42;;;6.40;99.90;;;;;;4896088;29;20051;-73
2023/02/04 01:54:35;;;;;;;18.50;2.60;;;6.40;99.90;;;;;;4887864;29;20040;-75
2023/02/04 01:57:02;;;;;;;22.15;2.60;;;6.40;99.90;;;;;;4886879;29;20420;-74
2023/02/04 01:59:29;;;;;;;18.55;2.35;;;6.40;99.90;;;;;;4913228;29;20047;-73
2023/02/04 02:01:55;;;;;;;19.08;2.05;;;6.40;99.90;;;;;;4871827;29;20059;-73
2023/02/04 02:04:32;;;;;;;19.45;2.10;;;6.30;99.90;;;;;;4891006;29;20050;-73
2023/02/04 02:07:04;;;;;;;11.48;1.95;;;6.30;99.90;;;;;;4896373;29;20044;-74
2023/02/04 02:09:32;;;;;;;16.80;2.00;;;6.30;99.90;;;;;;4902029;29;20515;-73
2023/02/04 02:12:01;;;;;;;13.45;2.25;;;6.30;99.90;;;;;;4887524;29;20051;-73
2023/02/04 02:14:28;;;;;;;21.88;1.73;;;6.30;99.90;;;;;;4879266;29;20509;-73
2023/02/04 02:16:54;;;;;;;14.50;1.85;;;6.30;99.90;;;;;;4892840;29;20051;-74
2023/02/04 02:19:27;;;;;;;23.00;3.40;;;6.20;99.90;;;;;;4893990;29;20048;-73
2023/02/04 02:22:27;;;;;;;19.50;2.42;;;6.20;99.90;;;;;;4914927;29;20488;-73
2023/02/04 02:24:53;;;;;;;23.83;3.08;;;6.10;99.90;;;;;;4866404;29;20044;-73
2023/02/04 02:27:20;;;;;;;25.60;3.72;;;6.10;99.90;;;;;;4908743;29;20063;-74
2023/02/04 02:29:47;;;;;;;21.42;2.65;;;6.10;99.90;;;;;;4888358;29;20040;-73
2023/02/04 02:32:14;;;;;;;23.48;2.70;;;6.10;99.90;;;;;;4915562;29;20040;-72
2023/02/04 02:34:41;;;;;;;22.55;2.58;;;6.10;99.90;;;;;;4871970;29;20040;-74
2023/02/04 02:37:08;;;;;;;9.95;1.95;;;6.00;99.90;;;;;;4879371;29;20503;-73
2023/02/04 02:39:36;;;;;;;11.15;1.45;;;5.90;99.90;;;;;;4898067;29;20045;-73
2023/02/04 02:42:03;;;;;;;14.82;2.25;;;5.90;99.90;;;;;;4881917;29;20036;-73
2023/02/04 02:44:29;;;;;;;11.18;1.58;;;5.90;99.90;;;;;;4889112;29;20047;-73
2023/02/04 02:46:57;;;;;;;8.88;1.02;;;5.80;99.90;;;;;;4890066;29;20405;-73
2023/02/04 02:49:25;;;;;;;16.13;2.53;;;5.80;99.90;;;;;;4912424;29;20059;-73
2023/02/04 02:51:51;;;;;;;16.83;1.77;;;5.70;99.90;;;;;;4896508;29;20040;-73
2023/02/04 02:54:28;;;;;;;16.83;1.48;;;5.70;99.90;;;;;;4905830;29;20497;-73
2023/02/04 02:56:57;;;;;;;19.20;2.15;;;5.70;99.90;;;;;;4901386;29;20047;-74
2023/02/04 02:59:25;;;;;;;12.68;1.52;;;5.70;99.90;;;;;;4890144;29;20492;-73
2023/02/04 03:01:56;;;;;;;16.80;2.15;;;5.60;99.90;;;;;;4881677;29;20051;-73
2023/02/04 03:04:27;;;;;;;10.98;1.55;;;5.60;99.90;;;;;;4904593;29;20669;-73
2023/02/04 03:06:55;;;;;;;16.33;1.52;;;5.50;99.90;;;;;;4884506;29;20035;-75
2023/02/04 03:09:23;;;;;;;8.57;1.05;;;5.50;99.90;;;;;;4885620;29;20522;-74
2023/02/04 03:11:51;;;;;;;22.20;2.22;;;5.50;99.90;;;;;;4883677;29;20039;-73
2023/02/04 03:14:18;;;;;;;9.82;1.85;;;5.50;99.90;;;;;;4904614;29;20043;-73
2023/02/04 03:16:46;;;;;;;10.93;1.23;;;5.50;99.90;;;;;;4879500;29;20439;-73
2023/02/04 03:19:13;;;;;;;11.38;1.30;;;5.50;99.90;;;;;;4913409;29;20044;-73
2023/02/04 03:21:40;;;;;;;10.10;1.30;;;5.40;99.90;;;;;;4893543;29;20047;-73
2023/02/04 03:24:07;;;;;;;8.80;0.98;;;5.50;99.90;;;;;;4888991;29;20063;-73
2023/02/04 03:26:33;;;;;;;14.80;1.25;;;5.40;99.90;;;;;;4860550;29;20043;-73
2023/02/04 03:29:00;;;;;;;11.05;1.15;;;5.50;99.90;;;;;;4896251;29;20043;-73
2023/02/04 03:31:26;;;;;;;6.03;0.85;;;5.50;99.90;;;;;;4896012;29;20090;-73
2023/02/04 03:33:52;;;;;;;12.05;1.08;;;5.40;99.90;;;;;;4892980;29;21916;-73
2023/02/04 03:36:19;;;;;;;12.93;2.33;;;5.40;99.90;;;;;;4895559;29;20060;-73
2023/02/04 03:38:45;;;;;;;9.65;1.17;;;5.40;99.90;;;;;;4899408;29;20036;-72
2023/02/04 03:41:11;;;;;;;12.70;1.25;;;5.30;99.90;;;;;;4903001;29;20062;-72
2023/02/04 03:43:37;;;;;;;11.77;1.25;;;5.30;99.90;;;;;;4914904;29;20032;-73
2023/02/04 03:46:04;;;;;;;16.85;1.65;;;5.20;99.90;;;;;;4859811;29;20040;-72
2023/02/04 03:48:30;;;;;;;15.15;2.15;;;5.20;99.90;;;;;;4903156;29;20472;-73
2023/02/04 03:50:57;;;;;;;14.75;1.40;;;5.20;99.90;;;;;;4914803;29;20512;-72
2023/02/04 03:53:23;;;;;;;10.40;1.48;;;5.10;99.90;;;;;;4900178;29;20055;-72
2023/02/04 03:55:49;;;;;;;9.00;1.27;;;5.10;99.90;;;;;;4912975;29;20467;-73
2023/02/04 03:58:16;;;;;;;16.20;1.65;;;5.10;99.90;;;;;;4898007;29;20069;-73
2023/02/04 04:00:42;;;;;;;12.75;1.15;;;5.00;99.90;;;;;;4920116;29;20040;-73
2023/02/04 04:03:08;;;;;;;17.77;1.42;;;5.00;99.90;;;;;;4887500;29;20043;-73
2023/02/04 04:05:35;;;;;;;11.05;1.25;;;5.00;99.90;;;;;;4890244;29;20040;-73
2023/02/04 04:08:01;;;;;;;8.05;1.27;;;4.90;99.90;;;;;;4918412;29;20058;-73
2023/02/04 04:10:28;;;;;;;9.98;0.82;;;4.90;99.90;;;;;;4900636;29;20036;-73
2023/02/04 04:12:54;;;;;;;11.27;1.50;;;4.90;99.90;;;;;;4894929;29;20403;-74
2023/02/04 04:15:20;;;;;;;6.70;0.93;;;4.80;99.90;;;;;;4909118;29;20055;-73
2023/02/04 04:17:47;;;;;;;9.20;0.80;;;4.80;99.90;;;;;;4917271;29;20047;-73
2023/02/04 04:20:13;;;;;;;8.88;0.85;;;4.80;99.90;;;;;;4901613;29;20055;-72
2023/02/04 04:22:40;;;;;;;12.75;1.40;;;4.80;99.90;;;;;;4919437;29;20397;-74
2023/02/04 04:25:07;;;;;;;11.75;1.50;;;4.80;99.90;;;;;;4892267;29;20448;-74
2023/02/04 04:27:33;;;;;;;14.25;1.77;;;4.70;99.90;;;;;;4908047;29;20043;-73
2023/02/04 04:30:00;;;;;;;8.93;1.27;;;4.70;99.90;;;;;;4898035;29;20040;-73
2023/02/04 04:32:26;;;;;;;9.10;1.30;;;4.70;99.90;;;;;;4884683;29;20411;-74
2023/02/04 04:34:52;;;;;;;16.77;1.90;;;4.70;99.90;;;;;;4909018;29;20040;-73
2023/02/04 04:37:18;;;;;;;14.30;1.63;;;4.70;99.90;;;;;;4912159;29;20060;-73
2023/02/04 04:39:45;;;;;;;20.45;1.75;;;4.70;99.90;;;;;;4916835;29;20400;-73
2023/02/04 04:42:11;;;;;;;16.98;2.42;;;4.70;99.90;;;;;;4916211;29;20414;-73
2023/02/04 04:44:37;;;;;;;15.98;2.05;;;4.80;99.90;;;;;;4909478;29;20051;-72
2023/02/04 04:47:03;;;;;;;15.55;1.38;;;4.80;99.90;;;;;;4899704;29;20043;-73
2023/02/04 04:49:30;;;;;;;11.95;1.10;;;4.80;99.90;;;;;;4917410;29;20044;-74
2023/02/04 04:51:56;;;;;;;16.08;1.60;;;4.80;99.90;;;;;;4917348;29;20055;-74
2023/02/04 04:54:22;;;;;;;10.85;1.23;;;4.80;99.90;;;;;;4893639;29;20047;-73
2023/02/04 04:56:49;;;;;;;18.35;1.95;;;4.80;99.90;;;;;;4914686;29;20036;-72
2023/02/04 04:59:15;;;;;;;30.35;3.00;;;4.90;99.90;;;;;;4893341;29;20047;-72
2023/02/04 05:01:41;;;;;;;34.03;4.55;;;4.90;99.90;;;;;;4916048;29;20040;-73
2023/02/04 05:04:07;;;;;;;18.90;2.35;;;4.90;99.90;;;;;;4893941;29;20047;-73
2023/02/04 05:06:34;;;;;;;19.70;2.33;;;5.00;99.90;;;;;;4890777;29;20111;-73
2023/02/04 05:09:00;;;;;;;24.15;2.78;;;5.00;99.90;;;;;;4908487;29;20047;-72
2023/02/04 05:11:26;;;;;;;17.77;2.60;;;5.00;99.90;;;;;;4918111;29;20042;-73
2023/02/04 05:13:52;;;;;;;17.77;2.05;;;5.10;99.90;;;;;;4910607;29;20050;-74
2023/02/04 05:16:19;;;;;;;11.60;1.73;;;5.20;99.90;;;;;;4895595;29;20044;-73
2023/02/04 05:18:45;;;;;;;16.67;1.58;;;5.20;99.90;;;;;;4901043;29;20046;-73
2023/02/04 05:21:13;;;;;;;20.77;2.38;;;5.30;99.90;;;;;;4898722;29;20484;-72
2023/02/04 05:23:40;;;;;;;14.68;1.73;;;5.30;99.90;;;;;;4913778;29;20040;-73
2023/02/04 05:26:06;;;;;;;16.10;2.00;;;5.30;99.90;;;;;;4908714;29;20415;-73
2023/02/04 05:28:32;;;;;;;14.93;1.98;;;5.40;99.90;;;;;;4900136;29;20028;-72
2023/02/04 05:30:59;;;;;;;16.20;1.70;;;5.40;99.90;;;;;;4899930;29;20289;-72
2023/02/04 05:33:25;;;;;;;16.20;1.95;;;5.50;99.90;;;;;;4910718;29;20038;-74
2023/02/04 05:35:52;;;;;;;17.00;2.30;;;5.50;99.90;;;;;;4905042;29;20040;-72
2023/02/04 05:38:18;;;;;;;16.38;1.70;;;5.50;99.90;;;;;;4883263;29;20479;-73
2023/02/04 05:40:44;;;;;;;14.45;2.03;;;5.50;99.90;;;;;;4903518;29;20800;-73
2023/02/04 05:43:11;;;;;;;19.20;2.03;;;5.50;99.90;;;;;;4915562;29;21111;-73
2023/02/04 05:45:37;;;;;;;18.80;2.65;;;5.50;99.90;;;;;;4904458;29;20515;-72
2023/02/04 05:48:03;;;;;;;18.38;2.03;;;5.40;99.90;;;;;;4882830;29;20063;-73
2023/02/04 05:50:30;;;;;;;18.67;1.85;;;5.40;99.90;;;;;;4896857;29;20044;-73
2023/02/04 05:53:08;;;;;;;13.68;1.50;;;5.40;99.90;;;;;;4898105;29;20035;-72
2023/02/04 05:55:34;;;;;;;12.90;2.20;;;5.40;99.90;;;;;;4903967;29;20032;-73
2023/02/04 05:58:01;;;;;;;17.10;2.10;;;5.30;99.90;;;;;;4898789;29;20040;-72
2023/02/04 06:00:27;;;;;;;20.85;3.25;;;5.30;99.90;;;;;;4914522;29;20502;-72
2023/02/04 06:02:53;;;;;;;16.80;2.00;;;5.30;99.90;;;;;;4916436;29;20032;-72
2023/02/04 06:05:19;;;;;;;16.90;1.80;;;5.20;99.90;;;;;;4899463;29;20044;-73
2023/02/04 06:07:46;;;;;;;24.02;3.20;;;5.20;99.90;;;;;;4897571;29;20040;-73
2023/02/04 06:10:12;;;;;;;19.38;2.47;;;5.20;99.90;;;;;;4914812;29;20036;-72
2023/02/04 06:12:38;;;;;;;25.50;2.42;;;5.20;99.90;;;;;;4882322;29;20060;-72
2023/02/04 06:15:05;;;;;;;15.05;2.13;;;5.20;99.90;;;;;;4905951;29;20043;-72
2023/02/04 06:17:31;;;;;;;14.40;1.90;;;5.20;99.90;;;;;;4911722;29;20047;-73
2023/02/04 06:19:58;;;;;;;19.63;2.25;;;5.30;99.90;;;;;;4916460;29;20036;-72
2023/02/04 06:22:25;;;;;;;17.55;2.00;;;5.30;99.90;;;;;;4898932;29;20044;-73
2023/02/04 06:24:51;;;;;;;36.03;3.28;;;5.30;99.90;;;;;;4889550;29;20593;-73
2023/02/04 06:27:22;;;;;;;16.38;1.95;;;5.30;99.90;;;;;;4872944;29;20051;-72
2023/02/04 06:29:49;;;;;;;24.88;3.25;;;5.30;99.90;;;;;;4913911;29;20040;-73
2023/02/04 06:32:16;;;;;;;16.15;1.77;;;5.40;99.90;;;;;;4913543;29;20047;-72
2023/02/04 06:34:43;;;;;;;10.60;1.42;;;5.40;99.90;;;;;;4899201;29;20040;-73
2023/02/04 06:37:09;;;;;;;14.27;1.80;;;5.40;99.90;;;;;;4892012;29;20055;-72
2023/02/04 06:39:35;;;;;;;12.15;1.58;;;5.40;99.90;;;;;;4897593;29;20036;-72
2023/02/04 06:42:02;;;;;;;17.23;2.20;;;5.40;99.90;;;;;;4897859;29;20059;-72
2023/02/04 06:44:28;;;;;;;17.48;1.80;;;5.40;99.90;;;;;;4891942;29;20028;-72
2023/02/04 06:46:54;;;;;;;19.13;2.40;;;5.50;99.90;;;;;;4895188;29;20043;-72
2023/02/04 06:49:21;;;;;;;16.88;2.33;;;5.50;99.90;;;;;;4898147;29;20036;-73
2023/02/04 06:51:48;;;;;;;12.43;1.50;;;5.50;99.90;;;;;;4898482;29;20051;-72
2023/02/04 06:54:14;;;;;;;13.35;1.85;;;5.50;99.90;;;;;;4900953;29;20040;-72
2023/02/04 06:56:42;;;;;;;11.95;1.23;;;5.60;99.90;;;;;;4893484;29;20051;-72
2023/02/04 06:59:09;;;;;;;12.15;1.55;;;5.60;99.90;;;;;;4896852;29;20055;-72
2023/02/04 07:01:35;;;;;;;14.23;1.60;;;5.60;99.90;;;;;;4912223;29;20047;-72
2023/02/04 07:04:02;;;;;;;14.57;1.55;;;5.70;99.90;;;;;;4890685;29;21511;-72
2023/02/04 07:06:28;;;;;;;16.00;2.30;;;5.70;99.90;;;;;;4893076;29;20504;-72
2023/02/04 07:08:54;;;;;;;19.08;2.28;;;5.70;99.90;;;;;;4914453;29;20043;-72
2023/02/04 07:11:20;;;;;;;11.80;1.52;;;5.80;99.90;;;;;;4904263;29;20051;-73
2023/02/04 07:13:47;;;;;;;16.05;1.90;;;5.80;99.90;;;;;;4905424;29;20039;-72
2023/02/04 07:16:13;;;;;;;23.20;2.53;;;5.80;99.90;;;;;;4889078;29;20054;-72
2023/02/04 07:18:39;;;;;;;14.75;2.15;;;5.80;99.90;;;;;;4896181;29;20051;-74
2023/02/04 07:21:05;;;;;;;19.65;2.30;;;5.80;99.90;;;;;;4906712;29;20514;-72
2023/02/04 07:23:32;;;;;;;11.30;1.35;;;5.80;99.90;;;;;;4900030;29;20463;-72
2023/02/04 07:25:58;;;;;;;19.42;2.25;;;5.90;99.90;;;;;;4874728;29;20391;-72
2023/02/04 07:28:24;;;;;;;21.48;2.42;;;5.90;99.90;;;;;;4912710;29;20043;-72
2023/02/04 07:30:51;;;;;;;15.27;1.83;;;5.90;99.90;;;;;;4897559;29;20046;-74
2023/02/04 07:33:17;;;;;;;28.77;2.33;;;5.90;99.90;;;;;;4897450;29;20032;-72
2023/02/04 07:35:43;;;;;;;27.27;2.10;;;6.00;99.90;;;;;;4888761;29;20039;-73
2023/02/04 07:38:09;;;;;;;18.27;2.42;;;6.00;99.90;;;;;;4912190;29;20277;-73
2023/02/04 07:40:36;;;;;;;24.50;2.60;;;6.00;99.90;;;;;;4895880;29;20040;-73
2023/02/04 07:43:02;;;;;;;15.65;2.83;;;6.00;99.90;;;;;;4895903;29;20051;-72
2023/02/04 07:45:29;;;;;;;17.25;1.52;;;6.00;99.90;;;;;;4885828;29;20051;-72
2023/02/04 07:47:55;;;;;;;20.23;2.47;;;6.10;99.90;;;;;;4896134;29;20048;-72
2023/02/04 07:50:21;;;;;;;18.48;2.17;;;6.10;99.90;;;;;;4912290;29;20031;-72
2023/02/04 07:52:48;;;;;;;15.98;1.48;;;6.20;99.90;;;;;;4896216;29;20050;-72
2023/02/04 07:55:14;;;;;;;22.15;2.88;;;6.20;99.90;;;;;;4905053;29;20055;-72
2023/02/04 07:57:40;;;;;;;21.40;2.80;;;6.20;99.90;;;;;;4917264;29;20051;-73
2023/02/04 08:00:08;;;;;;;18.30;2.17;;;6.30;99.90;;;;;;4897888;29;20048;-73
2023/02/04 08:02:40;;;;;;;22.13;2.70;;;6.40;99.90;;;;;;4905901;29;20489;-72
2023/02/04 08:05:08;;;;;;;24.25;2.38;;;6.40;99.90;;;;;;4904051;29;20036;-72
2023/02/04 08:07:34;;;;;;;26.90;3.70;;;6.40;99.90;;;;;;4911936;29;20389;-72
2023/02/04 08:10:01;;;;;;;22.63;3.30;;;6.50;99.90;;;;;;4904387;29;20036;-73
2023/02/04 08:12:28;;;;;;;16.15;2.22;;;6.60;99.90;;;;;;4914750;29;20042;-72
2023/02/04 08:14:55;;;;;;;30.85;3.40;;;6.60;99.90;;;;;;4904329;29;20059;-74
2023/02/04 08:17:21;;;;;;;20.77;3.30;;;6.60;99.90;;;;;;4908401;29;20072;-73
2023/02/04 08:19:48;;;;;;;32.05;4.95;;;6.70;99.90;;;;;;4886242;29;20044;-73
2023/02/04 08:22:14;;;;;;;32.35;4.90;;;6.70;99.90;;;;;;4915378;29;20036;-72
2023/02/04 08:24:40;;;;;;;29.58;4.72;;;6.70;99.90;;;;;;4890468;29;20032;-73
2023/02/04 08:27:07;;;;;;;25.17;3.92;;;6.80;99.90;;;;;;4912884;29;20046;-72
2023/02/04 08:29:33;;;;;;;18.40;3.53;;;6.90;99.90;;;;;;4897790;29;20054;-73
2023/02/04 08:31:59;;;;;;;23.77;3.95;;;7.00;99.90;;;;;;4892892;29;20044;-73
2023/02/04 08:34:25;;;;;;;22.38;4.13;;;7.00;99.90;;;;;;4912393;29;20040;-73
2023/02/04 08:36:52;;;;;;;17.40;2.60;;;7.10;99.90;;;;;;4906371;29;20428;-73
2023/02/04 08:39:18;;;;;;;22.38;4.55;;;7.20;99.90;;;;;;4880925;29;20454;-73
2023/02/04 08:41:44;;;;;;;28.83;4.85;;;7.30;99.90;;;;;;4897677;29;20051;-73
2023/02/04 08:44:10;;;;;;;26.98;4.00;;;7.30;99.90;;;;;;4908850;29;20040;-74
2023/02/04 08:46:37;;;;;;;29.98;3.92;;;7.30;99.90;;;;;;4904975;29;20047;-72
2023/02/04 08:49:03;;;;;;;30.00;4.22;;;7.40;99.90;;;;;;4895914;29;20040;-72
2023/02/04 08:51:29;;;;;;;14.50;2.60;;;7.40;99.90;;;;;;4913450;29;20423;-73
2023/02/04 08:53:55;;;;;;;25.70;4.22;;;7.50;99.90;;;;;;4896290;29;20044;-73
2023/02/04 08:56:22;;;;;;;20.75;4.35;;;7.60;99.90;;;;;;4896050;29;20527;-72
2023/02/04 08:58:48;;;;;;;28.70;4.75;;;7.60;99.90;;;;;;4911386;29;20456;-73
2023/02/04 09:01:14;;;;;;;27.80;4.07;;;7.60;99.90;;;;;;4913914;29;20114;-74
2023/02/04 09:03:41;;;;;;;32.80;4.07;;;7.70;99.90;;;;;;4898055;29;20043;-73
2023/02/04 09:06:07;;;;;;;20.27;3.78;;;7.70;99.90;;;;;;4910387;29;20051;-73
2023/02/04 09:08:33;;;;;;;35.50;4.25;;;7.70;99.90;;;;;;4879323;29;20476;-72
2023/02/04 09:11:00;;;;;;;28.52;4.95;;;7.70;99.90;;;;;;4882473;29;20218;-73
2023/02/04 09:13:26;;;;;;;28.30;4.43;;;7.80;99.90;;;;;;4897089;29;20043;-73
2023/02/04 09:15:53;;;;;;;24.13;3.72;;;7.90;99.90;;;;;;4904617;29;20494;-72
2023/02/04 09:18:21;;;;;;;30.77;4.20;;;8.00;99.90;;;;;;4897928;29;20047;-73
2023/02/04 09:20:48;;;;;;;23.45;3.55;;;8.10;99.90;;;;;;4898428;29;20047;-73
2023/02/04 09:23:15;;;;;;;16.52;2.95;;;8.20;99.90;;;;;;4915044;29;20047;-73
2023/02/04 09:25:43;;;;;;;19.23;3.08;;;8.30;99.90;;;;;;4887594;29;20408;-73
2023/02/04 09:28:11;;;;;;;19.55;3.78;;;8.40;99.90;;;;;;4896540;29;20036;-73
2023/02/04 09:30:39;;;;;;;27.73;4.07;;;8.50;99.90;;;;;;4916441;29;20042;-73
2023/02/04 09:33:05;;;;;;;22.08;3.92;;;8.50;99.90;;;;;;4906652;29;20575;-73
2023/02/04 09:35:31;;;;;;;27.17;5.20;;;8.50;99.90;;;;;;4904690;29;20040;-72
2023/02/04 09:37:58;;;;;;;25.25;4.07;;;8.50;99.90;;;;;;4915066;29;20047;-72
2023/02/04 09:40:27;;;;;;;24.15;3.45;;;8.40;99.90;;;;;;4912810;29;20521;-73
2023/02/04 09:42:54;;;;;;;18.27;2.65;;;8.40;99.90;;;;;;4906416;29;20044;-73
2023/02/04 09:45:26;;;;;;;24.65;3.65;;;8.30;99.90;;;;;;4875222;29;20051;-73
2023/02/04 09:47:56;;;;;;;28.15;6.93;;;8.20;99.90;;;;;;4907810;29;20035;-74
2023/02/04 09:50:24;;;;;;;32.33;7.15;;;8.30;99.90;;;;;;4893294;29;20036;-75
2023/02/04 09:52:54;;;;;;;25.20;5.95;;;8.20;99.90;;;;;;4903274;29;20532;-75
2023/02/04 09:55:27;;;;;;;20.80;4.30;;;8.30;99.90;;;;;;4882264;29;20032;-73
2023/02/04 09:57:53;;;;;;;;;;;8.30;99.90;;;;;;4899136;29;20031;-72
2023/02/04 10:00:22;;;;;;;26.48;4.32;;;8.40;99.90;;;;;;4878679;29;19919;-73
2023/02/04 10:02:49;;;;;;;25.35;5.05;;;8.60;99.90;;;;;;4909717;29;20048;-73
2023/02/04 10:05:17;;;;;;;28.20;4.78;;;8.80;99.90;;;;;;4881864;29;20036;-72
2023/02/04 10:07:45;;;;;;;31.13;4.95;;;8.90;99.90;;;;;;4908898;29;20048;-73
2023/02/04 10:10:20;;;;;;;28.23;4.35;;;9.10;99.90;;;;;;4892230;29;20048;-73
2023/02/04 10:12:48;;;;;;;32.17;5.75;;;9.20;99.90;;;;;;4912342;29;20032;-73
2023/02/04 10:15:20;;;;;;;26.27;4.28;;;9.20;99.90;;;;;;4903164;29;20490;-73
2023/02/04 10:17:50;;;;;;;31.98;6.30;;;9.30;99.90;;;;;;4909124;29;20055;-72
2023/02/04 10:20:19;;;;;;;29.73;6.55;;;9.30;99.90;;;;;;4903627;29;20036;-72
2023/02/04 10:22:51;;;;;;;27.75;4.70;;;9.40;99.90;;;;;;4913058;29;20450;-72
2023/02/04 10:25:20;;;;;;;36.40;4.63;;;9.40;99.90;;;;;;4887690;29;20142;-74
2023/02/04 10:27:55;;;;;;;26.85;3.85;;;9.60;99.90;;;;;;4913151;29;20040;-73
2023/02/04 10:30:24;;;;;;;20.40;3.90;;;9.70;99.90;;;;;;4910413;29;20032;-72
2023/02/04 10:32:52;;;;;;;27.35;4.22;;;9.80;99.90;;;;;;4913188;29;20047;-72
2023/02/04 10:35:20;;;;;;;28.45;4.22;;;9.80;99.90;;;;;;4898026;29;20036;-72
2023/02/04 10:37:47;;;;;;;28.17;4.60;;;10.00;99.90;;;;;;4882720;29;20424;-72
2023/02/04 10:40:34;;;;;;;41.88;5.90;;;10.20;99.90;;;;;;4895345;29;20039;-73
2023/02/04 10:43:17;;;;;;;28.63;5.03;;;10.20;99.90;;;;;;4899784;29;20051;-73
2023/02/04 10:45:46;;;;;;;24.45;3.72;;;10.30;99.90;;;;;;4902701;29;20023;-75
2023/02/04 10:48:17;;;;;;;26.55;3.25;;;10.70;99.90;;;;;;4915688;29;20039;-72
2023/02/04 10:50:46;;;;;;;22.10;2.83;;;10.90;99.90;;;;;;4881485;29;20055;-72
2023/02/04 10:56:09;;;;;;;27.13;4.70;;;11.30;99.90;;;;;;4902304;29;20495;-72
2023/02/04 10:58:35;;;;;;;30.40;4.83;;;11.50;99.90;;;;;;4915063;29;20032;-73
2023/02/04 11:01:02;;;;;;;19.77;3.47;;;11.60;99.90;;;;;;4914746;29;20050;-72
2023/02/04 11:03:29;;;;;;;23.95;3.40;;;11.80;99.90;;;;;;4897128;29;20050;-72
2023/02/04 11:05:57;;;;;;;25.33;3.35;;;11.80;99.90;;;;;;4874722;29;20056;-72
2023/02/04 11:08:29;;;;;;;27.30;4.10;;;11.70;99.90;;;;;;4911710;29;20031;-73
2023/02/04 11:10:59;;;;;;;28.45;4.25;;;11.70;99.90;;;;;;4880326;29;20040;-72
2023/02/04 11:13:56;;;;;;;30.00;3.58;;;11.50;99.90;;;;;;4915288;29;20036;-73
2023/02/04 11:16:22;;;;;;;21.15;3.25;;;11.50;99.90;;;;;;4875021;29;20047;-72
2023/02/04 11:18:51;;;;;;;30.50;3.08;;;11.40;99.90;;;;;;4895473;29;20040;-73
2023/02/04 11:21:33;;;;;;;22.70;2.58;;;11.30;99.90;;;;;;4907503;29;20044;-72
2023/02/04 11:24:31;;;;;;;24.40;4.05;;;11.30;99.90;;;;;;4909215;29;20052;-73
2023/02/04 11:27:06;;;;;;;22.38;4.30;;;11.20;99.90;;;;;;4876037;29;20040;-72
2023/02/04 11:29:37;;;;;;;21.83;3.65;;;11.20;99.90;;;;;;4881444;29;20067;-72
2023/02/04 11:32:11;;;;;;;23.05;2.60;;;11.20;99.90;;;;;;4918297;29;20019;-73
2023/02/04 11:34:47;;;;;;;18.90;2.45;;;11.20;99.90;;;;;;4907754;29;20035;-73
2023/02/04 11:37:17;;;;;;;22.25;3.72;;;11.20;99.90;;;;;;4879419;29;20075;-73
2023/02/04 11:39:48;;;;;;;16.85;3.15;;;11.30;99.90;;;;;;4913769;29;20040;-72
2023/02/04 11:42:21;;;;;;;19.13;3.17;;;11.50;99.90;;;;;;4906632;29;20035;-72
2023/02/04 11:44:59;;;;;;;19.23;2.72;;;11.60;99.90;;;;;;4889717;29;20056;-72
2023/02/04 11:47:32;;;;;;;21.80;2.92;;;11.70;99.90;;;;;;4894910;29;20043;-72
2023/02/04 11:50:03;;;;;;;27.63;4.72;;;11.70;99.90;;;;;;4879524;29;20535;-73
2023/02/04 11:52:29;;;;;;;15.35;2.53;;;11.60;99.90;;;;;;4901333;29;20032;-72
2023/02/04 11:54:58;;;;;;;19.55;2.75;;;11.40;99.90;;;;;;4906592;29;20908;-74
2023/02/04 11:57:25;;;;;;;27.70;2.67;;;11.30;99.90;;;;;;4915624;29;20048;-73
2023/02/04 11:59:52;;;;;;;18.95;3.22;;;11.20;99.90;;;;;;4916372;29;20566;-72
2023/02/04 12:02:22;;;;;;;15.25;1.75;;;11.10;99.90;;;;;;4902112;29;20048;-72
2023/02/04 12:05:11;;;;;;;19.55;3.55;;;10.90;99.90;;;;;;4893760;29;20036;-73
2023/02/04 12:07:38;;;;;;;17.92;2.53;;;10.90;99.90;;;;;;4893701;29;20040;-71
2023/02/04 12:10:24;;;;;;;24.08;4.75;;;10.80;99.90;;;;;;4880020;29;20411;-72
2023/02/04 12:12:56;;;;;;;18.42;2.72;;;10.80;99.90;;;;;;4896272;29;20053;-73
2023/02/04 12:15:37;;;;;;;13.52;1.85;;;10.70;99.90;;;;;;4888542;29;20497;-72
2023/02/04 12:18:11;;;;;;;13.00;2.17;;;10.60;99.90;;;;;;4898994;29;20036;-73
2023/02/04 12:20:38;;;;;;;13.50;1.73;;;10.60;99.90;;;;;;4908414;29;20059;-73
2023/02/04 12:23:05;;;;;;;16.23;1.45;;;10.50;99.90;;;;;;4896186;29;20384;-73
2023/02/04 12:25:31;;;;;;;15.68;1.75;;;10.50;99.90;;;;;;4903414;29;20514;-72
2023/02/04 12:27:57;;;;;;;10.25;1.98;;;10.40;99.90;;;;;;4911356;29;20683;-72
2023/02/04 12:30:25;;;;;;;17.25;2.13;;;10.40;99.90;;;;;;4910783;29;20383;-73
2023/02/04 12:32:52;;;;;;;11.07;1.55;;;10.30;99.90;;;;;;4885160;29;20600;-74
2023/02/04 12:35:18;;;;;;;15.30;2.30;;;10.30;99.90;;;;;;4876941;29;20055;-72
2023/02/04 12:37:45;;;;;;;16.02;2.90;;;10.20;99.90;;;;;;4898992;29;20415;-72
2023/02/04 12:40:16;;;;;;;14.15;2.20;;;10.20;99.90;;;;;;4916869;29;20047;-71
2023/02/04 12:42:43;;;;;;;11.90;1.70;;;10.10;99.90;;;;;;4900636;29;20058;-71
2023/02/04 12:45:11;;;;;;;15.82;3.20;;;10.10;99.90;;;;;;4904862;29;20036;-71
2023/02/04 12:47:37;;;;;;;9.27;1.38;;;10.10;99.90;;;;;;4895944;29;20548;-72
2023/02/04 12:50:05;;;;;;;13.75;1.73;;;10.10;99.90;;;;;;4906794;29;20040;-72
2023/02/04 12:52:32;;;;;;;12.77;1.95;;;10.00;99.90;;;;;;4909616;29;20048;-72